createdAt,value
2023-04-11T00:04:10.404Z,4.80
2023-04-11T00:09:17.499Z,4.70
2023-04-11T00:14:25.816Z,4.70
2023-04-11T00:19:33.801Z,4.60
2023-04-11T00:24:40.919Z,4.60
2023-04-11T00:29:47.999Z,4.90
2023-04-11T00:34:55.721Z,5.00
2023-04-11T00:40:02.818Z,4.80
2023-04-11T00:45:11.137Z,4.70
2023-04-11T00:50:18.207Z,4.70
2023-04-11T00:55:25.465Z,4.90
2023-04-11T01:00:36.652Z,4.80
2023-04-11T01:05:43.639Z,4.80
2023-04-11T01:10:52.053Z,4.60
2023-04-11T01:15:58.883Z,4.40
2023-04-11T01:21:06.248Z,4.60
2023-04-11T01:26:13.133Z,4.50
2023-04-11T01:31:20.538Z,4.60
2023-04-11T01:36:28.876Z,4.40
2023-04-11T01:41:38.277Z,4.50
2023-04-11T01:46:45.810Z,4.50
2023-04-11T01:51:52.623Z,4.50
2023-04-11T01:56:59.419Z,5.00
2023-04-11T02:02:06.249Z,4.90
2023-04-11T02:07:13.084Z,4.90
2023-04-11T02:12:19.859Z,4.70
2023-04-11T02:17:28.490Z,4.80
2023-04-11T02:22:35.316Z,4.50
2023-04-11T02:27:42.089Z,4.50
2023-04-11T02:32:50.206Z,4.50
2023-04-11T02:37:56.949Z,4.60
2023-04-11T02:43:03.771Z,4.90
2023-04-11T02:48:10.631Z,4.90
2023-04-11T02:53:18.148Z,4.90
2023-04-11T02:58:26.097Z,5.10
2023-04-11T03:03:32.929Z,5.00
2023-04-11T03:08:39.893Z,5.00
2023-04-11T03:13:46.667Z,4.80
2023-04-11T03:18:53.553Z,4.60
2023-04-11T03:24:00.461Z,4.90
2023-04-11T03:29:07.365Z,4.90
2023-04-11T03:34:14.229Z,4.90
2023-04-11T03:39:22.876Z,5.00
2023-04-11T03:44:29.902Z,5.10
2023-04-11T03:49:37.016Z,5.00
2023-04-11T03:54:45.321Z,5.00
2023-04-11T03:59:52.262Z,5.10
2023-04-11T04:05:01.940Z,4.90
2023-04-11T04:10:09.858Z,4.90
2023-04-11T04:15:16.599Z,5.00
2023-04-11T04:20:23.740Z,5.10
2023-04-11T04:25:30.600Z,5.10
2023-04-11T04:30:38.814Z,5.20
2023-04-11T04:35:45.600Z,5.10
2023-04-11T04:40:53.977Z,5.20
2023-04-11T04:46:01.154Z,5.30
2023-04-11T04:51:09.722Z,5.30
2023-04-11T04:56:16.660Z,5.40
2023-04-11T05:01:25.277Z,5.30
2023-04-11T05:06:33.797Z,5.40
2023-04-11T05:11:40.781Z,5.50
2023-04-11T05:16:47.884Z,5.60
2023-04-11T05:21:55.303Z,5.60
2023-04-11T05:27:02.158Z,5.60
2023-04-11T05:32:08.862Z,5.60
2023-04-11T05:37:16.591Z,5.70
2023-04-11T05:42:23.449Z,5.80
2023-04-11T05:47:30.546Z,6.00
2023-04-11T05:52:37.851Z,6.10
2023-04-11T05:57:44.766Z,6.20
2023-04-11T06:02:52.291Z,6.30
2023-04-11T06:08:01.108Z,6.30
2023-04-11T06:13:08.243Z,6.50
2023-04-11T06:18:15.027Z,6.60
2023-04-11T06:23:22.475Z,6.70
2023-04-11T06:28:29.605Z,6.80
2023-04-11T06:33:36.499Z,6.90
2023-04-11T06:38:44.068Z,7.20
2023-04-11T06:43:51.040Z,7.60
2023-04-11T06:48:58.171Z,7.40
2023-04-11T06:54:06.820Z,7.30
2023-04-11T06:59:13.730Z,7.60
2023-04-11T07:04:20.607Z,7.80
2023-04-11T07:09:27.839Z,8.10
2023-04-11T07:14:35.189Z,8.30
2023-04-11T07:19:42.093Z,8.40
2023-04-11T07:24:55.414Z,8.40
2023-04-11T07:30:02.439Z,8.40
2023-04-11T07:35:10.766Z,8.40
2023-04-11T07:40:18.182Z,8.60
2023-04-11T07:45:25.258Z,8.70
2023-04-11T07:50:35.337Z,8.80
2023-04-11T07:55:43.044Z,9.00
2023-04-11T08:00:51.066Z,9.10
2023-04-11T08:05:57.847Z,8.90
2023-04-11T08:11:05.112Z,8.70
2023-04-11T08:16:15.240Z,8.90
2023-04-11T08:21:25.326Z,9.00
2023-04-11T08:26:32.215Z,9.10
2023-04-11T08:31:41.253Z,9.10
2023-04-11T08:36:48.170Z,9.30
2023-04-11T08:41:55.248Z,9.40
2023-04-11T08:47:01.988Z,9.40
2023-04-11T08:52:09.184Z,9.40
2023-04-11T08:57:32.501Z,9.40
2023-04-11T09:03:01.366Z,9.30
2023-04-11T09:08:11.730Z,9.80
2023-04-11T09:13:24.385Z,9.90
2023-04-11T09:18:44.129Z,9.60
2023-04-11T09:23:51.393Z,9.50
2023-04-11T09:28:59.614Z,9.70
2023-04-11T09:34:07.086Z,9.40
2023-04-11T09:39:21.905Z,9.70
2023-04-11T09:44:39.831Z,10.00
2023-04-11T09:49:47.958Z,10.20
2023-04-11T09:54:55.912Z,10.20
2023-04-11T10:00:10.572Z,10.00
2023-04-11T10:05:19.327Z,10.50
2023-04-11T10:10:27.292Z,10.30
2023-04-11T10:15:34.074Z,10.50
2023-04-11T10:20:51.261Z,10.60
2023-04-11T10:26:04.038Z,10.50
2023-04-11T10:31:17.572Z,10.90
2023-04-11T10:36:24.866Z,10.90
2023-04-11T10:41:32.896Z,10.90
2023-04-11T10:46:55.674Z,11.30
2023-04-11T10:52:23.675Z,11.30
2023-04-11T10:57:32.207Z,11.20
2023-04-11T11:02:41.192Z,11.40
2023-04-11T11:07:52.802Z,11.50
2023-04-11T11:12:59.765Z,12.20
2023-04-11T11:18:10.199Z,12.80
2023-04-11T11:23:17.161Z,12.70
2023-04-11T11:28:24.962Z,12.90
2023-04-11T11:33:32.016Z,12.50
2023-04-11T11:38:39.383Z,12.10
2023-04-11T11:43:47.886Z,11.80
2023-04-11T11:49:09.243Z,12.00
2023-04-11T11:54:16.792Z,12.20
2023-04-11T11:59:29.647Z,12.40
2023-04-11T12:04:36.642Z,12.60
2023-04-11T12:09:44.404Z,12.10
2023-04-11T12:14:57.420Z,12.20
2023-04-11T12:20:08.513Z,12.60
2023-04-11T12:25:16.634Z,13.10
2023-04-11T12:30:23.491Z,13.10
2023-04-11T12:35:31.301Z,13.20
2023-04-11T12:40:38.556Z,13.30
2023-04-11T12:45:45.867Z,13.40
2023-04-11T12:50:52.824Z,13.70
2023-04-11T12:56:03.046Z,13.70
2023-04-11T13:01:10.350Z,14.00
2023-04-11T13:06:17.395Z,14.10
2023-04-11T13:11:25.360Z,13.90
2023-04-11T13:16:32.989Z,13.40
2023-04-11T13:21:41.083Z,13.60
2023-04-11T13:26:47.965Z,13.60
2023-04-11T13:31:55.121Z,13.20
2023-04-11T13:37:02.573Z,13.30
2023-04-11T13:42:09.422Z,13.90
2023-04-11T13:47:16.150Z,13.80
2023-04-11T13:52:24.364Z,13.90
2023-04-11T13:57:31.660Z,13.60
2023-04-11T14:02:39.134Z,13.80
2023-04-11T14:07:46.595Z,13.80
2023-04-11T14:12:53.710Z,13.50
2023-04-11T14:18:00.909Z,13.60
2023-04-11T14:23:09.932Z,13.40
2023-04-11T14:28:18.937Z,13.30
2023-04-11T14:33:26.955Z,12.30
2023-04-11T14:38:34.169Z,12.10
2023-04-11T14:43:41.494Z,11.80
2023-04-11T14:48:48.290Z,11.50
2023-04-11T14:53:57.054Z,11.30
2023-04-11T14:59:04.151Z,11.20
2023-04-11T15:04:11.829Z,11.10
2023-04-11T15:09:20.375Z,10.80
2023-04-11T15:14:28.749Z,10.70
2023-04-11T15:19:35.599Z,10.50
2023-04-11T15:24:42.889Z,10.40
2023-04-11T15:29:51.514Z,10.30
2023-04-11T15:34:59.018Z,10.10
2023-04-11T15:40:08.609Z,9.90
2023-04-11T15:45:15.731Z,9.80
2023-04-11T15:50:22.986Z,9.80
2023-04-11T15:55:30.053Z,9.50
2023-04-11T16:00:42.783Z,9.30
2023-04-11T16:05:51.503Z,9.10
2023-04-11T16:10:58.844Z,9.00
2023-04-11T16:16:06.107Z,8.80
2023-04-11T16:21:18.445Z,8.80
2023-04-11T16:26:25.355Z,8.90
2023-04-11T16:31:33.166Z,9.10
2023-04-11T16:36:40.148Z,9.30
2023-04-11T16:41:47.332Z,9.50
2023-04-11T16:46:54.247Z,9.20
2023-04-11T16:52:01.028Z,9.30
2023-04-11T16:57:07.939Z,9.20
2023-04-11T17:02:14.948Z,9.00
2023-04-11T17:07:21.893Z,9.00
2023-04-11T17:12:28.621Z,9.00
2023-04-11T17:17:36.493Z,9.10
2023-04-11T17:22:44.828Z,9.20
2023-04-11T17:27:51.608Z,9.10
2023-04-11T17:32:58.668Z,9.00
2023-04-11T17:38:05.606Z,8.60
2023-04-11T17:43:12.919Z,8.10
2023-04-11T17:48:20.799Z,8.10
2023-04-11T17:53:28.333Z,8.00
2023-04-11T17:58:35.142Z,7.70
2023-04-11T18:03:42.284Z,8.00
2023-04-11T18:08:51.145Z,8.30
2023-04-11T18:13:57.950Z,8.20
2023-04-11T18:19:05.129Z,7.80
2023-04-11T18:24:12.150Z,7.80
2023-04-11T18:29:20.889Z,7.50
2023-04-11T18:34:27.791Z,7.50
2023-04-11T18:39:35.032Z,7.40
2023-04-11T18:44:44.523Z,7.20
2023-04-11T18:49:51.408Z,7.20
2023-04-11T18:54:58.572Z,7.20
2023-04-11T19:00:18.605Z,6.90
2023-04-11T19:05:25.421Z,6.70
2023-04-11T19:10:32.940Z,6.70
2023-04-11T19:15:42.304Z,6.90
2023-04-11T19:20:49.413Z,6.90
2023-04-11T19:25:57.111Z,7.00
2023-04-11T19:31:03.867Z,6.90
2023-04-11T19:36:11.222Z,7.20
2023-04-11T19:41:20.880Z,7.00
2023-04-11T19:46:27.842Z,6.90
2023-04-11T19:51:35.010Z,6.90
2023-04-11T19:56:43.473Z,6.70
2023-04-11T20:01:52.082Z,7.00
2023-04-11T20:07:03.585Z,7.10
2023-04-11T20:12:10.890Z,6.70
2023-04-11T20:17:18.380Z,6.90
2023-04-11T20:22:26.216Z,6.90
2023-04-11T20:27:33.442Z,6.90
2023-04-11T20:32:41.459Z,6.90
2023-04-11T20:37:50.440Z,6.80
2023-04-11T20:42:58.859Z,6.70
2023-04-11T20:48:06.769Z,6.60
2023-04-11T20:53:13.723Z,6.50
2023-04-11T20:58:21.453Z,6.60
2023-04-11T21:03:34.611Z,6.70
2023-04-11T21:08:41.725Z,6.60
2023-04-11T21:13:51.727Z,6.60
2023-04-11T21:18:58.582Z,6.50
2023-04-11T21:24:07.835Z,6.50
2023-04-11T21:29:14.919Z,6.40
2023-04-11T21:34:22.697Z,6.40
2023-04-11T21:39:29.538Z,6.50
2023-04-11T21:44:38.081Z,6.50
2023-04-11T21:49:45.162Z,6.60
2023-04-11T21:54:52.162Z,6.40
2023-04-11T21:59:59.396Z,6.50
2023-04-11T22:10:57.513Z,6.40
2023-04-11T22:16:07.575Z,6.30
2023-04-11T22:21:21.990Z,6.30
2023-04-11T22:26:32.799Z,6.40
2023-04-11T22:31:40.464Z,6.40
2023-04-11T22:36:47.501Z,6.50
2023-04-11T22:41:55.813Z,6.50
2023-04-11T22:47:12.291Z,6.60
2023-04-11T22:52:20.704Z,6.20
2023-04-11T22:57:28.927Z,6.40
2023-04-11T23:02:37.906Z,6.50
2023-04-11T23:07:45.305Z,6.40
2023-04-11T23:12:52.136Z,6.50
2023-04-11T23:17:59.449Z,6.50
2023-04-11T23:23:08.115Z,6.50
2023-04-11T23:28:14.978Z,6.40
2023-04-11T23:33:22.492Z,6.60
2023-04-11T23:38:29.380Z,6.70
2023-04-11T23:43:36.468Z,6.50
2023-04-11T23:48:43.262Z,6.40
2023-04-11T23:53:50.721Z,6.30
2023-04-11T23:58:57.848Z,6.10
